Time;durP1;ratioP1;P1;durP2;ratioP2;P2;SDS_P1;SDS_P2;PMS_P1;PMS_P2;Temp;Humidity;BMP_temperature;BMP_pressure;BME280_temperature;BME280_humidity;BME280_pressure;Samples;Min_cycle;Max_cycle;Signal;HPM_P1;HPM_P2
2021/01/02 00:01:26;;;;;;;47.57;23.53;;;4.20;99.90;;;;;;5001673;28;20235;-44
2021/01/02 00:04:30;;;;;;;52.43;25.33;;;4.20;99.90;;;;;;5005378;28;20200;-44
2021/01/02 00:07:22;;;;;;;46.17;24.67;;;4.20;99.90;;;;;;4997355;28;20521;-46
2021/01/02 00:09:53;;;;;;;53.80;25.90;;;4.20;99.90;;;;;;5004166;28;20216;-47
2021/01/02 00:12:46;;;;;;;46.97;23.73;;;4.20;99.90;;;;;;5001014;28;20458;-44
2021/01/02 00:15:22;;;;;;;44.83;24.27;;;4.20;99.90;;;;;;4986403;28;20511;-45
2021/01/02 00:18:04;;;;;;;46.20;25.43;;;4.10;99.90;;;;;;5004375;28;20219;-44
2021/01/02 00:21:00;;;;;;;46.17;24.37;;;4.10;99.90;;;;;;5002338;28;20418;-47
2021/01/02 00:23:44;;;;;;;52.93;25.17;;;4.10;99.90;;;;;;5001812;28;20378;-45
2021/01/02 00:26:22;;;;;;;46.70;23.63;;;4.10;99.90;;;;;;4999897;28;20210;-46
2021/01/02 00:28:49;;;;;;;44.57;24.07;;;4.10;99.90;;;;;;4993705;28;20208;-50
2021/01/02 00:31:39;;;;;;;47.13;24.23;;;4.10;99.90;;;;;;4996614;28;20571;-50
2021/01/02 00:34:18;;;;;;;46.70;23.07;;;4.10;99.90;;;;;;5004353;28;20268;-45
2021/01/02 00:37:02;;;;;;;50.83;24.87;;;4.10;99.90;;;;;;5006432;28;20173;-48
2021/01/02 00:39:45;;;;;;;47.30;24.83;;;4.10;99.90;;;;;;5002359;28;20476;-45
2021/01/02 00:42:13;;;;;;;45.20;25.97;;;4.10;99.90;;;;;;5000181;28;20656;-45
2021/01/02 00:44:41;;;;;;;46.70;24.07;;;4.10;99.90;;;;;;4994976;28;20203;-50
2021/01/02 00:47:09;;;;;;;43.77;22.40;;;4.10;99.90;;;;;;4999822;28;20216;-46
2021/01/02 00:49:36;;;;;;;47.63;24.37;;;4.10;99.90;;;;;;5002092;28;20674;-45
2021/01/02 00:52:21;;;;;;;46.33;23.73;;;4.10;99.90;;;;;;5002610;28;20177;-48
2021/01/02 00:55:05;;;;;;;39.97;22.70;;;4.10;99.90;;;;;;5001108;28;20196;-47
2021/01/02 00:58:04;;;;;;;39.40;21.97;;;4.10;99.90;;;;;;5002130;28;20189;-46
2021/01/02 01:00:38;;;;;;;41.23;22.17;;;4.10;99.90;;;;;;4992013;28;21118;-44
2021/01/02 01:03:29;;;;;;;35.83;21.13;;;4.10;99.90;;;;;;5001981;28;20196;-44
2021/01/02 01:05:55;;;;;;;39.23;21.30;;;4.10;99.90;;;;;;5003912;28;20582;-45
2021/01/02 01:08:23;;;;;;;43.50;22.27;;;4.10;99.90;;;;;;5000416;28;20731;-43
2021/01/02 01:10:50;;;;;;;41.40;22.13;;;4.10;99.90;;;;;;5000783;28;20256;-46
2021/01/02 01:13:24;;;;;;;41.67;22.33;;;4.10;99.90;;;;;;4999695;28;20671;-46
2021/01/02 01:15:51;;;;;;;33.73;19.53;;;4.10;99.90;;;;;;5004462;28;20649;-49
2021/01/02 01:18:16;;;;;;;37.13;21.43;;;4.00;99.90;;;;;;4989231;28;20358;-48
2021/01/02 01:21:11;;;;;;;45.50;22.63;;;4.00;99.90;;;;;;5003706;28;20748;-47
2021/01/02 01:23:39;;;;;;;42.17;21.30;;;4.00;99.90;;;;;;5000648;28;20235;-48
2021/01/02 01:26:23;;;;;;;45.10;21.67;;;4.00;99.90;;;;;;4998205;28;20196;-47
2021/01/02 01:28:55;;;;;;;37.00;20.90;;;4.00;99.90;;;;;;5003000;28;20295;-45
2021/01/02 01:31:21;;;;;;;37.17;20.60;;;4.00;99.90;;;;;;4989579;28;20980;-49
2021/01/02 01:33:51;;;;;;;39.67;21.83;;;4.00;99.90;;;;;;5003081;28;20177;-46
2021/01/02 01:36:20;;;;;;;39.80;21.23;;;4.00;99.90;;;;;;4998960;28;20266;-47
2021/01/02 01:38:52;;;;;;;38.27;20.20;;;4.00;99.90;;;;;;5003199;28;20227;-46
2021/01/02 01:41:18;;;;;;;35.70;19.40;;;4.00;99.90;;;;;;4995353;28;20213;-47
2021/01/02 01:43:49;;;;;;;42.70;20.77;;;4.00;99.90;;;;;;5003414;28;20272;-47
2021/01/02 01:46:16;;;;;;;34.83;20.73;;;4.00;99.90;;;;;;4998967;28;20501;-46
2021/01/02 01:49:11;;;;;;;37.47;19.27;;;4.00;99.90;;;;;;4975492;28;20231;-50
2021/01/02 01:51:59;;;;;;;44.90;22.17;;;4.00;99.90;;;;;;4995538;28;20212;-49
2021/01/02 01:54:53;;;;;;;38.23;18.90;;;4.00;99.90;;;;;;5000067;28;20616;-47
2021/01/02 01:57:26;;;;;;;40.97;21.53;;;4.00;99.90;;;;;;4998660;28;20323;-49
2021/01/02 02:00:04;;;;;;;37.90;19.73;;;4.00;99.90;;;;;;4994631;28;20216;-49
2021/01/02 02:02:39;;;;;;;37.07;20.80;;;4.00;99.90;;;;;;4993627;28;20212;-51
2021/01/02 02:05:06;;;;;;;43.20;22.07;;;4.00;99.90;;;;;;5002246;28;20244;-47
2021/01/02 02:08:00;;;;;;;39.67;20.10;;;4.00;99.90;;;;;;5003243;28;20780;-51
2021/01/02 02:10:41;;;;;;;36.77;20.43;;;4.00;99.90;;;;;;5001452;28;20185;-46
2021/01/02 02:13:20;;;;;;;39.20;21.03;;;4.00;99.90;;;;;;5000180;28;20169;-46
2021/01/02 02:15:54;;;;;;;33.20;19.40;;;4.00;99.90;;;;;;5002879;28;20594;-45
2021/01/02 02:18:22;;;;;;;36.90;20.73;;;4.10;99.90;;;;;;4984866;28;20873;-50
2021/01/02 02:20:51;;;;;;;42.63;19.87;;;4.10;99.90;;;;;;5002457;28;20192;-47
2021/01/02 02:23:34;;;;;;;36.60;20.73;;;4.10;99.90;;;;;;4998564;28;20215;-46
2021/01/02 02:26:13;;;;;;;40.13;19.60;;;4.10;99.90;;;;;;5001658;28;20176;-45
2021/01/02 02:28:50;;;;;;;37.53;20.83;;;4.10;99.90;;;;;;5002110;28;20211;-45
2021/01/02 02:31:17;;;;;;;34.23;19.47;;;4.10;99.90;;;;;;4996673;28;20208;-45
2021/01/02 02:33:56;;;;;;;35.47;20.13;;;4.10;99.90;;;;;;4987807;28;20211;-44
2021/01/02 02:36:22;;;;;;;35.20;17.73;;;4.00;99.90;;;;;;4997613;28;20421;-46
2021/01/02 02:38:48;;;;;;;38.83;21.20;;;4.00;99.90;;;;;;4998764;28;20653;-48
2021/01/02 02:41:15;;;;;;;38.33;19.83;;;4.00;99.90;;;;;;4998224;28;20460;-47
2021/01/02 02:43:42;;;;;;;40.90;20.57;;;4.00;99.90;;;;;;5002804;28;20184;-48
2021/01/02 02:46:12;;;;;;;32.37;19.57;;;4.00;99.90;;;;;;4999717;28;20185;-47
2021/01/02 02:48:42;;;;;;;37.80;20.67;;;4.00;99.90;;;;;;5002934;28;20307;-49
2021/01/02 02:51:10;;;;;;;34.53;19.83;;;4.00;99.90;;;;;;4989660;28;20209;-46
2021/01/02 02:53:36;;;;;;;35.47;19.43;;;4.00;99.90;;;;;;5002239;28;20174;-45
2021/01/02 02:56:02;;;;;;;36.60;19.47;;;4.00;99.90;;;;;;4997344;28;20551;-47
2021/01/02 02:58:30;;;;;;;35.07;20.80;;;4.10;99.90;;;;;;5000289;28;20395;-47
2021/01/02 03:00:56;;;;;;;40.87;20.37;;;4.10;99.90;;;;;;5003325;28;20223;-45
2021/01/02 03:03:21;;;;;;;33.43;19.93;;;4.00;99.90;;;;;;5000772;28;20181;-48
2021/01/02 03:05:49;;;;;;;34.57;19.90;;;4.00;99.90;;;;;;4997389;28;20196;-44
2021/01/02 03:08:15;;;;;;;33.10;19.97;;;4.10;99.90;;;;;;5001696;28;20410;-48
2021/01/02 03:10:43;;;;;;;37.70;19.47;;;4.00;99.90;;;;;;5002815;28;20216;-48
2021/01/02 03:13:08;;;;;;;32.60;18.93;;;4.10;99.90;;;;;;5003433;28;20180;-49
2021/01/02 03:15:41;;;;;;;34.53;19.33;;;4.00;99.90;;;;;;5005910;28;20253;-48
2021/01/02 03:18:07;;;;;;;35.67;20.60;;;4.10;99.90;;;;;;5004066;28;20184;-49
2021/01/02 03:20:33;;;;;;;33.40;20.13;;;4.00;99.90;;;;;;4995575;28;20228;-46
2021/01/02 03:22:58;;;;;;;39.63;21.03;;;4.00;99.90;;;;;;5005473;28;20173;-46
2021/01/02 03:25:24;;;;;;;36.17;20.60;;;4.00;99.90;;;;;;5003675;28;20169;-47
2021/01/02 03:27:53;;;;;;;36.57;21.77;;;4.00;99.90;;;;;;4996869;28;20938;-50
2021/01/02 03:30:20;;;;;;;36.93;21.27;;;4.00;99.90;;;;;;5006214;28;20691;-46
2021/01/02 03:32:45;;;;;;;33.33;21.13;;;4.00;99.90;;;;;;5001716;28;20358;-48
2021/01/02 03:35:13;;;;;;;34.07;19.13;;;4.00;99.90;;;;;;5005684;28;20247;-44
2021/01/02 03:37:40;;;;;;;37.30;21.50;;;4.00;99.90;;;;;;4991689;28;20288;-47
2021/01/02 03:40:08;;;;;;;41.40;21.97;;;4.00;99.90;;;;;;5005263;28;20201;-47
2021/01/02 03:42:40;;;;;;;34.47;20.23;;;4.10;99.90;;;;;;5002685;28;20199;-45
2021/01/02 03:45:08;;;;;;;40.03;20.70;;;4.10;99.90;;;;;;5005568;28;20264;-46
2021/01/02 03:47:34;;;;;;;34.30;20.90;;;4.10;99.90;;;;;;5002336;28;20210;-45
2021/01/02 03:50:00;;;;;;;42.17;20.77;;;4.00;99.90;;;;;;5004132;28;20271;-47
2021/01/02 03:52:26;;;;;;;32.10;19.37;;;4.00;99.90;;;;;;4994070;28;20189;-48
2021/01/02 03:54:52;;;;;;;38.67;21.23;;;4.00;99.90;;;;;;5002723;28;20490;-47
2021/01/02 03:57:17;;;;;;;38.43;22.63;;;4.00;99.90;;;;;;5005893;28;20272;-47
2021/01/02 03:59:43;;;;;;;41.27;22.13;;;4.10;99.90;;;;;;5000509;28;20394;-44
2021/01/02 04:02:08;;;;;;;38.07;21.80;;;4.10;99.90;;;;;;5005364;28;20710;-45
2021/01/02 04:04:34;;;;;;;33.70;20.70;;;4.10;99.90;;;;;;5002275;28;20216;-45
2021/01/02 04:07:03;;;;;;;41.63;22.63;;;4.10;99.90;;;;;;4993685;28;20388;-44
2021/01/02 04:09:29;;;;;;;39.87;21.73;;;4.10;99.90;;;;;;5002729;28;20169;-49
2021/01/02 04:11:54;;;;;;;40.07;22.23;;;4.10;99.90;;;;;;5002888;28;20196;-46
2021/01/02 04:14:20;;;;;;;49.30;23.87;;;4.10;99.90;;;;;;5004129;28;20181;-46
2021/01/02 04:16:45;;;;;;;42.20;23.10;;;4.10;99.90;;;;;;4999545;28;20284;-48
2021/01/02 04:19:12;;;;;;;41.60;23.30;;;4.10;99.90;;;;;;5004745;28;20181;-46
2021/01/02 04:21:38;;;;;;;40.40;23.57;;;4.10;99.90;;;;;;5000674;28;20204;-45
2021/01/02 04:24:05;;;;;;;45.47;24.17;;;4.10;99.90;;;;;;4995215;28;20185;-50
2021/01/02 04:26:30;;;;;;;45.03;23.63;;;4.10;99.90;;;;;;5001527;28;20830;-47
2021/01/02 04:28:57;;;;;;;47.70;23.43;;;4.10;99.90;;;;;;5002490;28;20223;-46
2021/01/02 04:31:38;;;;;;;46.10;23.80;;;4.10;99.90;;;;;;5004148;28;20727;-50
2021/01/02 04:34:08;;;;;;;48.97;23.70;;;4.10;99.90;;;;;;5004374;28;20654;-47
2021/01/02 04:36:35;;;;;;;43.33;23.87;;;4.20;99.90;;;;;;5001733;28;20181;-49
2021/01/02 04:39:00;;;;;;;47.43;22.57;;;4.20;99.90;;;;;;4993537;28;20251;-46
2021/01/02 04:41:26;;;;;;;40.63;23.47;;;4.20;99.90;;;;;;5002879;28;20196;-50
2021/01/02 04:43:53;;;;;;;37.37;22.53;;;4.20;99.90;;;;;;5001813;28;20403;-46
2021/01/02 04:46:20;;;;;;;45.13;23.00;;;4.20;99.90;;;;;;4996801;28;20188;-48
2021/01/02 04:48:48;;;;;;;44.07;22.53;;;4.20;99.90;;;;;;4999639;28;20212;-46
2021/01/02 04:51:14;;;;;;;56.07;24.83;;;4.20;99.90;;;;;;5002733;28;20196;-47
2021/01/02 04:53:40;;;;;;;45.73;24.37;;;4.20;99.90;;;;;;4989577;28;20445;-46
2021/01/02 04:56:07;;;;;;;37.27;21.30;;;4.20;99.90;;;;;;5004031;28;20203;-47
2021/01/02 04:58:36;;;;;;;38.97;21.87;;;4.20;99.90;;;;;;4998568;28;20188;-50
2021/01/02 05:01:04;;;;;;;48.57;22.97;;;4.20;99.90;;;;;;4985205;28;20259;-47
2021/01/02 05:03:33;;;;;;;53.60;23.70;;;4.20;99.90;;;;;;4999431;28;20193;-47
2021/01/02 05:05:58;;;;;;;51.80;24.70;;;4.20;99.90;;;;;;4998591;28;20557;-45
2021/01/02 05:08:24;;;;;;;42.27;22.73;;;4.20;99.90;;;;;;4998126;28;20210;-50
2021/01/02 05:11:03;;;;;;;44.50;22.67;;;4.20;99.90;;;;;;4995692;28;20201;-47
2021/01/02 05:13:31;;;;;;;57.13;25.20;;;4.20;99.90;;;;;;5001285;28;20180;-46
2021/01/02 05:16:16;;;;;;;47.53;22.80;;;4.20;99.90;;;;;;5003421;28;20179;-51
2021/01/02 05:18:55;;;;;;;42.20;23.23;;;4.20;99.90;;;;;;4998968;28;20192;-48
2021/01/02 05:21:21;;;;;;;38.97;20.70;;;4.20;99.90;;;;;;4998908;28;20246;-47
2021/01/02 05:24:25;;;;;;;49.03;24.50;;;4.20;99.90;;;;;;4997009;28;20634;-47
2021/01/02 05:26:59;;;;;;;42.20;22.33;;;4.20;99.90;;;;;;4995940;28;20389;-49
2021/01/02 05:29:30;;;;;;;46.23;24.07;;;4.20;99.90;;;;;;5001674;28;20188;-45
2021/01/02 05:31:58;;;;;;;40.93;21.50;;;4.20;99.90;;;;;;5003260;28;20195;-48
2021/01/02 05:34:26;;;;;;;46.17;22.90;;;4.20;99.90;;;;;;5000471;28;20184;-49
2021/01/02 05:37:09;;;;;;;45.37;23.30;;;4.20;99.90;;;;;;4999269;28;20439;-46
2021/01/02 05:39:37;;;;;;;45.70;21.80;;;4.20;99.90;;;;;;4994704;28;20184;-48
2021/01/02 05:42:03;;;;;;;46.67;22.37;;;4.20;99.90;;;;;;4993750;28;20192;-44
2021/01/02 05:44:33;;;;;;;38.63;20.53;;;4.20;99.90;;;;;;5000779;28;20269;-47
2021/01/02 05:46:59;;;;;;;40.13;21.90;;;4.20;99.90;;;;;;5003094;28;20201;-45
2021/01/02 05:49:32;;;;;;;38.93;22.07;;;4.20;99.90;;;;;;5001104;28;20805;-46
2021/01/02 05:51:59;;;;;;;38.77;21.40;;;4.20;99.90;;;;;;5004536;28;20589;-47
2021/01/02 05:54:30;;;;;;;45.33;22.70;;;4.20;99.90;;;;;;4999361;28;20204;-44
2021/01/02 05:56:59;;;;;;;42.57;21.63;;;4.20;99.90;;;;;;4994839;28;20280;-47
2021/01/02 05:59:29;;;;;;;36.20;20.23;;;4.20;99.90;;;;;;5002601;28;20541;-47
2021/01/02 06:01:55;;;;;;;39.03;20.43;;;4.20;99.90;;;;;;5002753;28;20193;-48
2021/01/02 06:04:20;;;;;;;51.10;24.47;;;4.20;99.90;;;;;;5002311;28;20165;-48
2021/01/02 06:06:45;;;;;;;55.97;23.17;;;4.20;99.90;;;;;;4999997;28;20558;-44
2021/01/02 06:09:12;;;;;;;75.40;30.13;;;4.20;99.90;;;;;;4998910;28;20232;-44
2021/01/02 06:11:42;;;;;;;56.07;26.00;;;4.20;99.90;;;;;;4988889;28;20521;-48
2021/01/02 06:14:08;;;;;;;52.07;24.83;;;4.30;99.90;;;;;;5003000;28;20169;-44
2021/01/02 06:16:42;;;;;;;50.03;25.20;;;4.30;99.90;;;;;;4999097;28;20695;-47
2021/01/02 06:19:07;;;;;;;42.47;23.13;;;4.30;99.90;;;;;;5003088;28;20255;-45
2021/01/02 06:21:33;;;;;;;63.97;26.43;;;4.30;99.90;;;;;;4999100;28;20275;-46
2021/01/02 06:23:58;;;;;;;44.47;23.20;;;4.30;99.90;;;;;;5002720;28;20173;-47
2021/01/02 06:26:24;;;;;;;49.40;23.23;;;4.30;99.90;;;;;;4992209;28;20255;-47
2021/01/02 06:28:50;;;;;;;43.67;23.60;;;4.30;99.90;;;;;;4995542;28;20449;-44
2021/01/02 06:31:16;;;;;;;44.40;23.03;;;4.30;99.90;;;;;;5002914;28;20608;-47
2021/01/02 06:33:46;;;;;;;50.87;24.43;;;4.30;99.90;;;;;;4999017;28;20456;-45
2021/01/02 06:36:29;;;;;;;43.93;23.37;;;4.30;99.90;;;;;;5002874;28;20548;-44
2021/01/02 06:39:19;;;;;;;42.93;23.70;;;4.30;99.90;;;;;;5001660;28;20424;-46
2021/01/02 06:41:45;;;;;;;45.00;23.20;;;4.30;99.90;;;;;;4998213;28;20216;-46
2021/01/02 06:44:31;;;;;;;48.10;24.03;;;4.30;99.90;;;;;;4997466;28;20199;-48
2021/01/02 06:47:12;;;;;;;44.40;22.17;;;4.30;99.90;;;;;;4998609;28;20536;-45
2021/01/02 06:49:38;;;;;;;47.10;23.97;;;4.30;99.90;;;;;;5002259;28;20169;-47
2021/01/02 06:52:03;;;;;;;48.90;25.67;;;4.30;99.90;;;;;;5006718;28;20529;-45
2021/01/02 06:54:29;;;;;;;52.40;24.77;;;4.30;99.90;;;;;;5001331;28;20173;-48
2021/01/02 06:57:04;;;;;;;48.77;24.50;;;4.30;99.90;;;;;;5003511;28;20395;-45
2021/01/02 06:59:30;;;;;;;68.40;29.50;;;4.30;99.90;;;;;;4993141;28;20184;-47
2021/01/02 07:01:56;;;;;;;50.53;24.63;;;4.30;99.90;;;;;;5006122;28;20563;-53
2021/01/02 07:04:36;;;;;;;61.37;28.70;;;4.30;99.90;;;;;;5006897;28;20525;-46
2021/01/02 07:07:03;;;;;;;56.60;26.00;;;4.30;99.90;;;;;;5008188;28;20172;-51
2021/01/02 07:09:29;;;;;;;50.87;25.13;;;4.30;99.90;;;;;;5001382;28;20200;-46
2021/01/02 07:12:06;;;;;;;52.80;24.33;;;4.40;99.90;;;;;;5005365;28;20283;-52
2021/01/02 07:14:32;;;;;;;58.80;27.20;;;4.30;99.90;;;;;;4996857;28;20287;-45
2021/01/02 07:17:01;;;;;;;43.87;22.60;;;4.30;99.90;;;;;;4988837;28;20268;-49
2021/01/02 07:19:33;;;;;;;46.00;23.90;;;4.30;99.90;;;;;;5002288;28;20512;-48
2021/01/02 07:22:09;;;;;;;47.73;25.17;;;4.30;99.90;;;;;;5005638;28;20165;-49
2021/01/02 07:24:49;;;;;;;57.90;28.13;;;4.30;99.90;;;;;;4997904;28;20160;-51
2021/01/02 07:27:25;;;;;;;44.57;23.33;;;4.30;99.90;;;;;;5005886;28;20168;-45
2021/01/02 07:29:57;;;;;;;50.73;26.07;;;4.30;99.90;;;;;;4993827;28;20528;-46
2021/01/02 07:32:28;;;;;;;59.27;26.07;;;4.30;99.90;;;;;;5004047;28;20188;-50
2021/01/02 07:34:55;;;;;;;47.33;23.70;;;4.30;99.90;;;;;;5005498;28;20379;-50
2021/01/02 07:37:23;;;;;;;46.27;23.63;;;4.30;99.90;;;;;;5005475;28;20231;-48
2021/01/02 07:39:59;;;;;;;51.40;25.20;;;4.30;99.90;;;;;;5003117;28;20184;-47
2021/01/02 07:42:28;;;;;;;50.13;24.07;;;4.30;99.90;;;;;;4999669;28;20194;-48
2021/01/02 07:45:10;;;;;;;47.20;24.60;;;4.30;99.90;;;;;;5003609;28;20441;-46
2021/01/02 07:47:45;;;;;;;48.00;24.73;;;4.40;99.90;;;;;;4991612;28;20474;-47
2021/01/02 07:50:13;;;;;;;48.33;24.67;;;4.40;99.90;;;;;;5005872;28;20239;-46
2021/01/02 07:52:54;;;;;;;53.23;23.97;;;4.30;99.90;;;;;;4999759;28;20177;-46
2021/01/02 07:55:25;;;;;;;52.57;23.67;;;4.30;99.90;;;;;;4999685;28;20239;-45
2021/01/02 07:57:51;;;;;;;51.90;24.37;;;4.40;99.90;;;;;;5003921;28;20180;-46
2021/01/02 08:00:18;;;;;;;46.60;23.87;;;4.40;99.90;;;;;;4988320;28;20628;-48
2021/01/02 08:02:43;;;;;;;50.43;24.23;;;4.40;99.90;;;;;;4987193;28;20200;-46
2021/01/02 08:05:14;;;;;;;55.00;25.27;;;4.40;99.90;;;;;;5000092;28;20345;-48
2021/01/02 08:07:41;;;;;;;52.70;25.23;;;4.50;99.90;;;;;;4991681;28;20249;-48
2021/01/02 08:10:13;;;;;;;48.90;25.10;;;4.50;99.90;;;;;;5005822;28;20196;-52
2021/01/02 08:12:50;;;;;;;55.67;25.73;;;4.40;99.90;;;;;;4996916;28;20185;-46
2021/01/02 08:15:33;;;;;;;58.07;26.47;;;4.50;99.90;;;;;;5005053;28;20283;-51
2021/01/02 08:18:03;;;;;;;52.57;25.63;;;4.40;99.90;;;;;;4989652;28;20412;-52
2021/01/02 08:20:29;;;;;;;52.43;25.30;;;4.40;99.90;;;;;;4997804;28;20243;-50
2021/01/02 08:22:55;;;;;;;53.23;27.07;;;4.40;99.90;;;;;;5000978;28;20180;-51
2021/01/02 08:25:20;;;;;;;56.40;25.40;;;4.40;99.90;;;;;;5005405;28;20207;-49
2021/01/02 08:27:48;;;;;;;64.73;27.20;;;4.40;99.90;;;;;;5003250;28;20211;-51
2021/01/02 08:30:15;;;;;;;57.97;26.70;;;4.40;99.90;;;;;;4994474;28;20205;-51
2021/01/02 08:32:50;;;;;;;59.73;25.90;;;4.40;99.90;;;;;;4990748;28;20258;-50
2021/01/02 08:35:26;;;;;;;55.90;26.33;;;4.40;99.90;;;;;;4994952;28;20187;-49
2021/01/02 08:37:52;;;;;;;42.90;23.50;;;4.40;99.90;;;;;;4997546;28;20821;-50
2021/01/02 08:40:18;;;;;;;44.97;24.03;;;4.40;99.90;;;;;;4997789;28;20205;-46
2021/01/02 08:42:46;;;;;;;50.77;23.80;;;4.40;99.90;;;;;;4995755;28;20181;-52
2021/01/02 08:45:13;;;;;;;41.73;21.70;;;4.40;99.90;;;;;;5006290;28;20196;-51
2021/01/02 08:47:40;;;;;;;50.03;23.13;;;4.50;99.90;;;;;;4992672;28;20292;-57
2021/01/02 08:50:13;;;;;;;65.07;24.77;;;4.40;99.90;;;;;;4981263;28;20205;-50
2021/01/02 08:52:40;;;;;;;55.67;26.03;;;4.40;99.90;;;;;;4992246;28;20188;-54
2021/01/02 08:55:15;;;;;;;49.73;23.77;;;4.40;99.90;;;;;;4996929;28;20185;-50
2021/01/02 08:57:51;;;;;;;52.40;24.77;;;4.50;99.90;;;;;;4988184;28;20203;-44
2021/01/02 09:00:19;;;;;;;49.77;23.70;;;4.50;99.90;;;;;;4986279;28;20227;-46
2021/01/02 09:03:08;;;;;;;57.53;25.87;;;4.50;99.90;;;;;;5001845;28;20192;-48
2021/01/02 09:05:38;;;;;;;53.30;25.80;;;4.40;99.90;;;;;;4987340;28;20669;-47
2021/01/02 09:08:07;;;;;;;69.67;27.70;;;4.40;99.90;;;;;;4998531;28;20227;-49
2021/01/02 09:10:42;;;;;;;51.17;25.60;;;4.40;99.90;;;;;;5006959;28;20205;-47
2021/01/02 09:13:22;;;;;;;58.60;25.63;;;4.40;99.90;;;;;;5001121;28;20227;-46
2021/01/02 09:16:03;;;;;;;48.53;25.13;;;4.50;99.90;;;;;;5001891;28;20263;-47
2021/01/02 09:18:29;;;;;;;56.77;25.43;;;4.50;99.90;;;;;;5003128;28;20183;-47
2021/01/02 09:20:55;;;;;;;49.00;24.07;;;4.50;99.90;;;;;;4997045;28;20208;-46
2021/01/02 09:23:38;;;;;;;46.43;24.50;;;4.50;99.90;;;;;;4995230;28;20208;-48
2021/01/02 09:26:24;;;;;;;50.10;24.60;;;4.40;99.90;;;;;;5003450;28;20622;-47
2021/01/02 09:28:51;;;;;;;46.73;24.13;;;4.40;99.90;;;;;;5001766;28;20344;-45
2021/01/02 09:31:17;;;;;;;48.63;23.27;;;4.40;99.90;;;;;;4995859;28;20212;-49
2021/01/02 09:33:43;;;;;;;47.73;23.60;;;4.40;99.90;;;;;;5005035;28;20271;-46
2021/01/02 09:36:12;;;;;;;43.93;21.90;;;4.50;99.90;;;;;;4992643;28;20737;-47
2021/01/02 09:38:38;;;;;;;52.80;25.40;;;4.50;99.90;;;;;;4997173;28;20201;-47
2021/01/02 09:41:03;;;;;;;56.50;25.80;;;4.50;99.90;;;;;;5000207;28;20212;-46
2021/01/02 09:43:29;;;;;;;48.30;25.27;;;4.40;99.90;;;;;;4997003;28;20231;-44
2021/01/02 09:45:55;;;;;;;59.93;26.97;;;4.50;99.90;;;;;;4994595;28;20238;-51
2021/01/02 09:48:21;;;;;;;52.67;24.77;;;4.50;99.90;;;;;;4994561;28;20291;-52
2021/01/02 09:50:47;;;;;;;62.73;27.80;;;4.50;99.90;;;;;;4989527;28;20343;-52
2021/01/02 09:53:13;;;;;;;56.23;25.47;;;4.50;99.90;;;;;;4997376;28;20207;-46
2021/01/02 09:55:38;;;;;;;50.83;24.47;;;4.50;99.90;;;;;;4988045;28;20197;-45
2021/01/02 09:58:05;;;;;;;52.90;25.67;;;4.50;99.90;;;;;;5002880;28;20181;-46
2021/01/02 10:00:30;;;;;;;64.93;26.20;;;4.50;99.90;;;;;;4995546;28;20244;-50
2021/01/02 10:02:57;;;;;;;43.40;22.40;;;4.50;99.90;;;;;;4997957;28;20215;-44
2021/01/02 10:05:24;;;;;;;54.20;23.57;;;4.50;99.90;;;;;;5004023;28;20284;-48
2021/01/02 10:07:50;;;;;;;64.37;27.00;;;4.50;99.90;;;;;;4981329;28;20211;-49
2021/01/02 10:10:17;;;;;;;59.37;23.80;;;4.50;99.90;;;;;;4991663;28;20209;-44
2021/01/02 10:12:44;;;;;;;51.33;23.87;;;4.50;99.90;;;;;;4982331;28;20546;-45
2021/01/02 10:15:10;;;;;;;50.63;24.17;;;4.50;99.90;;;;;;4986835;28;20195;-47
2021/01/02 10:17:36;;;;;;;49.80;22.33;;;4.50;99.90;;;;;;5010531;28;20219;-45
2021/01/02 10:20:02;;;;;;;63.43;26.73;;;4.40;99.90;;;;;;4997239;28;20705;-45
2021/01/02 10:22:28;;;;;;;50.70;23.73;;;4.50;99.90;;;;;;5000632;28;20239;-47
2021/01/02 10:24:54;;;;;;;51.17;23.50;;;4.50;99.90;;;;;;4991524;28;20193;-49
2021/01/02 10:27:22;;;;;;;72.63;28.27;;;4.50;99.90;;;;;;4994134;28;20195;-48
2021/01/02 10:29:52;;;;;;;53.47;24.53;;;4.50;99.90;;;;;;4998141;28;20214;-48
2021/01/02 10:32:20;;;;;;;53.63;23.80;;;4.60;99.90;;;;;;5004965;28;20187;-50
2021/01/02 10:34:46;;;;;;;52.00;24.83;;;4.60;99.90;;;;;;5012383;28;20216;-47
2021/01/02 10:37:13;;;;;;;51.57;23.63;;;4.60;99.90;;;;;;4994822;28;20429;-49
2021/01/02 10:39:39;;;;;;;53.47;24.13;;;4.60;99.90;;;;;;4989908;28;20177;-46
2021/01/02 10:42:05;;;;;;;54.07;23.97;;;4.50;99.90;;;;;;5000157;28;20216;-45
2021/01/02 10:44:31;;;;;;;66.23;25.83;;;4.50;99.90;;;;;;5023201;22;20228;-45
2021/01/02 10:46:58;;;;;;;47.90;24.03;;;4.50;99.90;;;;;;5012305;28;20195;-50
2021/01/02 10:49:23;;;;;;;48.97;22.63;;;4.50;99.90;;;;;;5019600;28;20418;-47
2021/01/02 10:51:49;;;;;;;48.57;23.50;;;4.50;99.90;;;;;;5020492;28;20202;-47
2021/01/02 10:54:17;;;;;;;41.37;20.77;;;4.60;99.90;;;;;;5009154;28;20515;-46
2021/01/02 10:56:46;;;;;;;40.23;19.67;;;4.60;99.90;;;;;;5018386;28;20203;-47
2021/01/02 10:59:12;;;;;;;45.97;20.67;;;4.60;99.90;;;;;;5015003;28;20665;-45
2021/01/02 11:01:46;;;;;;;45.20;21.63;;;4.60;99.90;;;;;;5015446;28;20278;-51
2021/01/02 11:04:13;;;;;;;56.03;25.53;;;4.60;99.90;;;;;;5021025;28;20589;-48
2021/01/02 11:06:40;;;;;;;46.60;23.07;;;4.70;99.90;;;;;;5020902;28;20172;-47
2021/01/02 11:09:07;;;;;;;46.30;21.70;;;4.70;99.90;;;;;;5010685;28;20231;-49
2021/01/02 11:11:33;;;;;;;47.83;23.30;;;4.70;99.90;;;;;;5010856;28;20207;-46
2021/01/02 11:14:00;;;;;;;57.83;26.33;;;4.70;99.90;;;;;;5023056;28;20634;-47
2021/01/02 11:16:42;;;;;;;56.80;23.00;;;4.70;99.90;;;;;;5014531;28;20180;-49
2021/01/02 11:19:25;;;;;;;55.60;25.33;;;4.70;99.90;;;;;;5005911;28;20180;-48
2021/01/02 11:21:52;;;;;;;55.07;23.63;;;4.70;99.90;;;;;;5014603;28;20235;-46
2021/01/02 11:24:20;;;;;;;71.83;29.77;;;4.70;99.90;;;;;;5005864;28;20278;-57
2021/01/02 11:26:47;;;;;;;69.20;27.97;;;4.70;99.90;;;;;;5019565;28;20219;-50
2021/01/02 11:29:15;;;;;;;49.03;24.70;;;4.70;99.90;;;;;;5024785;28;20266;-54
2021/01/02 11:31:41;;;;;;;49.77;24.47;;;4.70;99.90;;;;;;5023493;28;20196;-52
2021/01/02 11:34:08;;;;;;;69.13;28.53;;;4.70;99.90;;;;;;5018207;28;20187;-52
2021/01/02 11:36:33;;;;;;;67.90;26.83;;;4.80;99.90;;;;;;5015392;28;20184;-48
2021/01/02 11:38:59;;;;;;;61.93;27.33;;;4.70;99.90;;;;;;5025537;28;20546;-54
2021/01/02 11:41:38;;;;;;;55.27;24.87;;;4.70;99.90;;;;;;5009668;28;20290;-51
2021/01/02 11:44:05;;;;;;;49.53;22.30;;;4.70;99.90;;;;;;5020900;28;20192;-49
2021/01/02 11:46:37;;;;;;;47.00;23.40;;;4.70;99.90;;;;;;5019647;28;20292;-53
2021/01/02 11:49:04;;;;;;;40.93;21.67;;;4.80;99.90;;;;;;5016795;28;20907;-52
2021/01/02 11:51:29;;;;;;;39.40;19.80;;;4.80;99.90;;;;;;5022985;28;20211;-51
2021/01/02 11:53:55;;;;;;;28.93;17.00;;;4.70;99.90;;;;;;5008220;28;20188;-52
2021/01/02 11:56:22;;;;;;;29.50;16.40;;;4.70;99.90;;;;;;5009946;28;20180;-47
2021/01/02 11:58:49;;;;;;;27.57;15.50;;;4.60;99.90;;;;;;5020855;28;20203;-51
2021/01/02 12:01:15;;;;;;;27.40;16.50;;;4.60;99.90;;;;;;5026361;28;20290;-45
2021/01/02 12:03:41;;;;;;;36.23;17.57;;;4.60;99.90;;;;;;5019249;28;20180;-52
2021/01/02 12:06:06;;;;;;;36.33;17.13;;;4.60;99.90;;;;;;5020436;28;20188;-49
2021/01/02 12:08:32;;;;;;;31.47;16.83;;;4.60;99.90;;;;;;5020679;28;20208;-51
2021/01/02 12:10:58;;;;;;;31.07;16.07;;;4.60;99.90;;;;;;5005722;28;22486;-49
2021/01/02 12:13:23;;;;;;;30.10;16.40;;;4.70;99.90;;;;;;5025359;28;20199;-50
2021/01/02 12:15:50;;;;;;;31.93;17.47;;;4.70;99.90;;;;;;5019730;28;20174;-47
2021/01/02 12:18:15;;;;;;;30.20;16.50;;;4.70;99.90;;;;;;5025664;28;20188;-44
2021/01/02 12:20:41;;;;;;;28.03;15.93;;;4.70;99.90;;;;;;5014274;28;20254;-50
2021/01/02 12:23:06;;;;;;;30.20;16.43;;;4.70;99.90;;;;;;5020333;28;20503;-47
2021/01/02 12:25:32;;;;;;;43.80;20.83;;;4.70;99.90;;;;;;5017958;28;20241;-50
2021/01/02 12:27:58;;;;;;;34.50;19.20;;;4.70;99.90;;;;;;5012706;28;20214;-46
2021/01/02 12:30:28;;;;;;;41.60;20.27;;;4.70;99.90;;;;;;5018467;28;20281;-46
2021/01/02 12:32:55;;;;;;;44.80;21.80;;;4.70;99.90;;;;;;5022046;28;20912;-44
2021/01/02 12:35:21;;;;;;;49.97;23.83;;;4.70;99.90;;;;;;5034106;28;20668;-50
2021/01/02 12:37:46;;;;;;;47.33;22.43;;;4.70;99.90;;;;;;5014511;28;20196;-51
2021/01/02 12:40:12;;;;;;;53.77;24.00;;;4.70;99.90;;;;;;5022153;28;20208;-51
2021/01/02 12:42:38;;;;;;;45.40;21.83;;;4.70;99.90;;;;;;5011822;28;20207;-53
2021/01/02 12:45:07;;;;;;;55.13;25.17;;;4.70;99.90;;;;;;5018961;28;21031;-49
2021/01/02 12:47:33;;;;;;;48.40;22.43;;;4.80;99.90;;;;;;5023656;28;20258;-49
2021/01/02 12:49:58;;;;;;;45.53;22.00;;;4.90;99.90;;;;;;5021416;28;20291;-44
2021/01/02 12:52:28;;;;;;;52.53;22.67;;;4.90;99.90;;;;;;5020740;28;20199;-46